Time;durP1;ratioP1;P1;durP2;ratioP2;P2;SDS_P1;SDS_P2;PMS_P1;PMS_P2;Temp;Humidity;BMP_temperature;BMP_pressure;BME280_temperature;BME280_humidity;BME280_pressure;Samples;Min_cycle;Max_cycle;Signal;HPM_P1;HPM_P2
2022/03/08 00:03:06;;;;;;;9.50;5.25;;;19.90;63.00;;;;;;7842516;28;20229;-47
2022/03/08 00:06:51;;;;;;;9.63;5.85;;;19.90;63.00;;;;;;7842278;28;20204;-48
2022/03/08 00:10:37;;;;;;;8.07;4.70;;;19.90;62.90;;;;;;7840686;28;20679;-48
2022/03/08 00:14:23;;;;;;;7.70;4.75;;;19.80;62.80;;;;;;7841009;28;20197;-46
2022/03/08 00:18:09;;;;;;;7.35;4.70;;;19.80;62.90;;;;;;7840451;28;20268;-46
2022/03/08 00:21:55;;;;;;;7.78;4.80;;;19.80;62.70;;;;;;7838814;28;20340;-46
2022/03/08 00:25:40;;;;;;;7.57;5.22;;;19.80;62.70;;;;;;7838837;28;20182;-46
2022/03/08 00:29:26;;;;;;;8.27;4.40;;;19.70;62.50;;;;;;7838496;28;20286;-46
2022/03/08 00:33:12;;;;;;;13.13;5.07;;;19.70;62.40;;;;;;7838636;28;20301;-45
2022/03/08 00:36:57;;;;;;;9.13;4.05;;;19.70;62.40;;;;;;7838588;28;20166;-47
2022/03/08 00:40:43;;;;;;;7.05;4.10;;;19.60;62.20;;;;;;7837737;28;20652;-47
2022/03/08 00:44:29;;;;;;;8.20;4.05;;;19.60;62.30;;;;;;7838241;28;20605;-46
2022/03/08 00:48:14;;;;;;;5.65;3.55;;;19.60;62.20;;;;;;7838647;28;20539;-46
2022/03/08 00:52:00;;;;;;;6.07;4.28;;;19.60;62.20;;;;;;7837979;28;20214;-47
2022/03/08 00:55:46;;;;;;;7.75;4.25;;;19.60;62.20;;;;;;7838238;28;20177;-47
2022/03/08 00:59:32;;;;;;;6.65;3.83;;;19.50;62.20;;;;;;7838118;28;20185;-46
2022/03/08 01:03:17;;;;;;;6.60;3.97;;;19.50;62.20;;;;;;7837909;28;20225;-46
2022/03/08 01:07:06;;;;;;;7.63;4.00;;;19.50;62.10;;;;;;7838035;28;20174;-46
2022/03/08 01:10:52;;;;;;;5.90;3.38;;;19.50;61.70;;;;;;7837640;28;20249;-48
2022/03/08 01:14:37;;;;;;;6.82;3.40;;;19.50;62.00;;;;;;7837364;28;20660;-46
2022/03/08 01:18:23;;;;;;;5.07;3.75;;;19.50;62.00;;;;;;7837842;28;20257;-47
2022/03/08 01:22:10;;;;;;;5.88;3.50;;;19.50;61.90;;;;;;7837689;28;20190;-46
2022/03/08 01:25:55;;;;;;;5.65;3.42;;;19.40;62.00;;;;;;7837980;28;20817;-48
2022/03/08 01:29:41;;;;;;;6.25;3.38;;;19.40;61.80;;;;;;7837608;28;20517;-47
2022/03/08 01:33:27;;;;;;;7.68;3.75;;;19.40;61.40;;;;;;7837691;28;20201;-46
2022/03/08 01:37:13;;;;;;;5.80;3.35;;;19.40;61.80;;;;;;7837724;28;20265;-46
2022/03/08 01:40:58;;;;;;;6.82;3.30;;;19.40;61.60;;;;;;7837327;28;20265;-46
2022/03/08 01:44:45;;;;;;;5.70;3.40;;;19.30;62.00;;;;;;7837798;28;20170;-47
2022/03/08 01:48:31;;;;;;;4.38;2.95;;;19.30;61.80;;;;;;7837459;28;20216;-46
2022/03/08 01:52:20;;;;;;;3.90;3.00;;;19.30;61.90;;;;;;7839167;28;20194;-48
2022/03/08 01:56:08;;;;;;;5.53;3.22;;;19.20;61.60;;;;;;7843249;28;20670;-47
2022/03/08 01:59:54;;;;;;;6.18;3.33;;;19.30;61.80;;;;;;7843107;28;20174;-46
2022/03/08 02:03:40;;;;;;;5.10;2.78;;;19.20;61.80;;;;;;7843065;28;20209;-47
2022/03/08 02:07:26;;;;;;;4.78;3.28;;;19.20;61.50;;;;;;7843062;28;20641;-47
2022/03/08 02:11:11;;;;;;;3.97;2.70;;;19.20;61.50;;;;;;7842527;28;20217;-46
2022/03/08 02:14:57;;;;;;;3.13;2.40;;;19.20;62.50;;;;;;7842696;28;20177;-46
2022/03/08 02:18:42;;;;;;;8.00;3.63;;;19.20;61.30;;;;;;7842766;28;20557;-47
2022/03/08 02:22:28;;;;;;;3.85;2.83;;;19.20;61.40;;;;;;7842489;28;20259;-47
2022/03/08 02:26:14;;;;;;;5.95;3.00;;;19.20;60.80;;;;;;7842424;28;20610;-46
2022/03/08 02:29:59;;;;;;;7.80;2.67;;;19.10;60.70;;;;;;7842046;28;20289;-46
2022/03/08 02:33:45;;;;;;;3.50;2.78;;;19.10;60.50;;;;;;7842127;28;20298;-45
2022/03/08 02:37:37;;;;;;;3.20;2.50;;;19.10;60.70;;;;;;7841971;28;20170;-46
2022/03/08 02:41:24;;;;;;;5.43;2.67;;;19.20;60.40;;;;;;7841742;28;20236;-46
2022/03/08 02:45:11;;;;;;;4.28;2.75;;;19.10;60.60;;;;;;7841794;28;20740;-47
2022/03/08 02:48:56;;;;;;;4.25;2.67;;;19.10;60.40;;;;;;7841630;28;20198;-46
2022/03/08 02:52:45;;;;;;;3.80;2.60;;;19.10;60.10;;;;;;7841320;28;20202;-47
2022/03/08 02:56:30;;;;;;;3.58;2.33;;;19.10;60.50;;;;;;7841437;28;20185;-46
2022/03/08 03:00:17;;;;;;;4.13;2.70;;;19.10;60.40;;;;;;7864438;28;20212;-46
2022/03/08 03:04:03;;;;;;;5.78;3.22;;;19.10;61.00;;;;;;7871594;28;20713;-47
2022/03/08 03:07:48;;;;;;;9.25;3.15;;;19.10;60.60;;;;;;7872279;28;20608;-46
2022/03/08 03:11:34;;;;;;;6.07;3.53;;;19.00;60.40;;;;;;7871940;28;20201;-47
2022/03/08 03:15:20;;;;;;;5.07;3.25;;;19.00;60.10;;;;;;7872319;28;20190;-46
2022/03/08 03:19:05;;;;;;;6.43;3.35;;;19.10;60.10;;;;;;7871899;28;20542;-46
2022/03/08 03:22:51;;;;;;;5.43;3.05;;;19.00;60.50;;;;;;7871956;28;20212;-46
2022/03/08 03:26:37;;;;;;;6.25;3.20;;;19.00;60.30;;;;;;7872166;28;20247;-46
2022/03/08 03:30:23;;;;;;;6.93;3.33;;;19.00;60.20;;;;;;7871395;28;20220;-50
2022/03/08 03:34:08;;;;;;;4.50;3.13;;;19.00;60.20;;;;;;7871851;28;20236;-47
2022/03/08 03:37:54;;;;;;;5.60;3.20;;;19.00;60.20;;;;;;7871183;28;20181;-46
2022/03/08 03:41:39;;;;;;;4.10;2.80;;;19.00;60.10;;;;;;7870732;28;20204;-46
2022/03/08 03:45:25;;;;;;;4.28;2.83;;;19.00;60.00;;;;;;7871217;28;20256;-46
2022/03/08 03:49:10;;;;;;;4.10;2.70;;;19.00;60.20;;;;;;7870562;28;20194;-46
2022/03/08 03:52:56;;;;;;;4.22;2.70;;;19.00;60.30;;;;;;7870765;28;20320;-47
2022/03/08 03:56:41;;;;;;;5.60;2.60;;;19.00;60.00;;;;;;7849840;28;20182;-47
2022/03/08 04:00:27;;;;;;;5.10;2.92;;;18.90;60.00;;;;;;7839200;28;20189;-46
2022/03/08 04:04:12;;;;;;;4.47;2.80;;;19.00;60.00;;;;;;7839158;28;20252;-46
2022/03/08 04:07:58;;;;;;;4.18;3.00;;;19.00;60.00;;;;;;7844049;28;20185;-46
2022/03/08 04:11:46;;;;;;;5.47;3.25;;;19.00;60.00;;;;;;7848453;28;20262;-47
2022/03/08 04:15:32;;;;;;;4.65;2.95;;;19.00;60.00;;;;;;7839834;28;20193;-46
2022/03/08 04:19:17;;;;;;;5.32;2.60;;;19.00;59.80;;;;;;7846196;28;20221;-47
2022/03/08 04:23:03;;;;;;;5.05;2.75;;;19.00;59.60;;;;;;7848383;28;20208;-46
2022/03/08 04:26:49;;;;;;;4.75;3.03;;;19.00;59.60;;;;;;7870091;28;20193;-45
2022/03/08 04:30:35;;;;;;;4.07;2.65;;;19.00;59.50;;;;;;7869910;28;20248;-46
2022/03/08 04:34:20;;;;;;;3.95;2.70;;;19.00;59.50;;;;;;7869987;28;20189;-47
2022/03/08 04:38:05;;;;;;;3.88;2.80;;;19.00;59.40;;;;;;7855195;28;20201;-46
2022/03/08 04:41:51;;;;;;;4.43;2.35;;;19.00;59.30;;;;;;7843429;28;20217;-46
2022/03/08 04:45:37;;;;;;;3.70;2.58;;;19.10;59.30;;;;;;7838351;28;20557;-46
2022/03/08 04:49:23;;;;;;;4.20;2.67;;;19.10;59.60;;;;;;7838153;28;20767;-46
2022/03/08 04:53:08;;;;;;;4.40;2.83;;;19.10;59.30;;;;;;7838288;28;20194;-46
2022/03/08 04:56:54;;;;;;;3.60;2.63;;;19.10;59.10;;;;;;7838172;28;20178;-46
2022/03/08 05:00:39;;;;;;;5.72;2.70;;;19.10;59.10;;;;;;7837830;28;20181;-46
2022/03/08 05:04:25;;;;;;;3.65;2.42;;;19.20;59.00;;;;;;7837920;28;20226;-47
2022/03/08 05:08:10;;;;;;;7.57;2.70;;;19.20;59.00;;;;;;7838367;28;20170;-45
2022/03/08 05:11:56;;;;;;;4.10;2.80;;;19.20;58.90;;;;;;7837857;28;20268;-47
2022/03/08 05:15:41;;;;;;;4.22;2.80;;;19.20;58.80;;;;;;7850639;28;20182;-46
2022/03/08 05:19:27;;;;;;;5.28;2.63;;;19.30;58.80;;;;;;7868820;28;20608;-46
2022/03/08 05:23:13;;;;;;;5.40;2.78;;;19.30;58.70;;;;;;7846610;28;20213;-47
2022/03/08 05:26:58;;;;;;;4.57;3.08;;;19.30;58.70;;;;;;7839292;28;20538;-45
2022/03/08 05:30:45;;;;;;;3.78;2.60;;;19.30;58.50;;;;;;7843636;28;20201;-46
2022/03/08 05:34:30;;;;;;;4.00;2.70;;;19.40;58.60;;;;;;7843735;28;20255;-46
2022/03/08 05:38:16;;;;;;;8.27;3.30;;;19.40;58.70;;;;;;7856385;28;20177;-46
2022/03/08 05:42:02;;;;;;;14.00;2.80;;;19.40;58.90;;;;;;7874251;28;20670;-45
2022/03/08 05:45:49;;;;;;;8.43;2.67;;;19.50;59.10;;;;;;7874488;28;20556;-47
2022/03/08 05:49:34;;;;;;;7.45;3.38;;;19.50;59.10;;;;;;7874271;28;20592;-45
2022/03/08 05:53:20;;;;;;;6.93;3.33;;;19.50;59.20;;;;;;7873378;28;20213;-47
2022/03/08 05:57:05;;;;;;;5.85;3.92;;;19.60;58.90;;;;;;7874794;28;20174;-47
2022/03/08 06:00:51;;;;;;;14.35;3.70;;;19.60;58.70;;;;;;7874365;28;20185;-46
2022/03/08 06:04:36;;;;;;;8.30;4.28;;;19.60;59.20;;;;;;7874204;28;20289;-47
2022/03/08 06:08:22;;;;;;;13.93;5.10;;;19.60;59.00;;;;;;7874118;28;20208;-46
2022/03/08 06:12:08;;;;;;;14.70;6.10;;;19.60;58.60;;;;;;7873644;28;20209;-46
2022/03/08 06:15:53;;;;;;;13.52;5.35;;;19.60;58.30;;;;;;7873517;28;20208;-46
2022/03/08 06:19:39;;;;;;;8.60;5.35;;;19.60;58.20;;;;;;7863379;28;20186;-47
2022/03/08 06:23:24;;;;;;;7.95;5.03;;;19.60;58.10;;;;;;7842065;28;20608;-46
2022/03/08 06:27:10;;;;;;;9.50;5.15;;;19.60;58.30;;;;;;7842026;28;20188;-46
2022/03/08 06:30:55;;;;;;;11.90;5.88;;;19.60;58.40;;;;;;7841782;28;20264;-48
2022/03/08 06:34:41;;;;;;;14.98;5.82;;;19.70;58.20;;;;;;7841974;28;20224;-45
2022/03/08 06:38:26;;;;;;;10.25;5.55;;;19.60;58.10;;;;;;7841130;28;20316;-46
2022/03/08 06:42:12;;;;;;;8.82;5.38;;;19.70;58.30;;;;;;7841358;28;20205;-45
2022/03/08 06:45:57;;;;;;;9.13;5.22;;;19.70;58.20;;;;;;7841767;28;20185;-45
2022/03/08 06:49:43;;;;;;;11.30;5.50;;;19.70;58.30;;;;;;7841306;28;20249;-46
2022/03/08 06:53:29;;;;;;;7.95;5.25;;;19.70;58.50;;;;;;7841436;28;20271;-49
2022/03/08 06:57:15;;;;;;;11.02;5.22;;;19.70;58.50;;;;;;7841449;28;20174;-45
2022/03/08 07:01:00;;;;;;;9.27;5.55;;;19.70;58.50;;;;;;7840951;28;20526;-45
2022/03/08 07:04:46;;;;;;;9.07;4.80;;;19.80;58.70;;;;;;7840979;28;20185;-46
2022/03/08 07:08:31;;;;;;;7.32;5.30;;;19.70;58.70;;;;;;7841011;28;20198;-45
2022/03/08 07:12:17;;;;;;;7.90;4.78;;;19.80;58.70;;;;;;7840598;28;20236;-46
2022/03/08 07:16:03;;;;;;;7.60;5.15;;;19.80;58.80;;;;;;7841019;28;20178;-46
2022/03/08 07:19:48;;;;;;;7.68;4.78;;;19.80;58.80;;;;;;7839037;28;20856;-47
2022/03/08 07:23:34;;;;;;;17.02;4.95;;;19.80;58.80;;;;;;7840562;28;20637;-45
2022/03/08 07:27:19;;;;;;;7.28;4.75;;;19.80;59.00;;;;;;7840533;28;20181;-47
2022/03/08 07:31:05;;;;;;;8.88;5.50;;;19.80;58.80;;;;;;7839729;28;20297;-45
2022/03/08 07:34:51;;;;;;;17.10;5.00;;;19.80;58.80;;;;;;7840497;28;20635;-46
2022/03/08 07:38:37;;;;;;;7.55;4.47;;;19.80;59.00;;;;;;7838690;28;20286;-48
2022/03/08 07:42:23;;;;;;;10.80;4.65;;;19.80;59.00;;;;;;7839112;28;20377;-46
2022/03/08 07:46:09;;;;;;;9.35;4.70;;;19.90;59.10;;;;;;7840214;28;20171;-47
2022/03/08 07:49:55;;;;;;;6.30;4.43;;;19.80;59.00;;;;;;7839607;28;20233;-45
2022/03/08 07:53:41;;;;;;;6.63;4.55;;;19.90;59.00;;;;;;7840030;28;20248;-45
2022/03/08 07:57:26;;;;;;;9.90;4.20;;;19.80;58.90;;;;;;7839778;28;20648;-45
2022/03/08 08:01:12;;;;;;;5.38;4.10;;;19.80;59.00;;;;;;7839040;28;20233;-46
2022/03/08 08:04:58;;;;;;;6.60;4.20;;;19.90;59.00;;;;;;7846937;28;20211;-45
2022/03/08 08:08:43;;;;;;;6.78;3.88;;;19.80;59.00;;;;;;7869628;28;20185;-46
2022/03/08 08:12:29;;;;;;;6.70;3.90;;;19.90;59.10;;;;;;7869804;28;20189;-45
2022/03/08 08:16:16;;;;;;;10.15;3.75;;;19.90;59.00;;;;;;7842833;28;20182;-45
2022/03/08 08:20:03;;;;;;;6.88;3.78;;;19.80;59.00;;;;;;7838622;28;20776;-49
2022/03/08 08:23:48;;;;;;;5.70;3.42;;;19.90;59.00;;;;;;7839214;28;20194;-48
2022/03/08 08:27:34;;;;;;;8.05;3.90;;;19.80;59.00;;;;;;7838761;28;20221;-47
2022/03/08 08:31:20;;;;;;;5.13;3.90;;;19.90;59.00;;;;;;7838277;28;20691;-47
2022/03/08 08:35:06;;;;;;;6.30;3.50;;;19.90;59.10;;;;;;7838685;28;20221;-45
2022/03/08 08:38:51;;;;;;;6.85;3.20;;;19.90;59.30;;;;;;7838452;28;20181;-46
2022/03/08 08:42:37;;;;;;;5.50;3.50;;;19.90;59.60;;;;;;7838036;28;20198;-47
2022/03/08 08:46:22;;;;;;;5.50;3.08;;;19.80;59.20;;;;;;7838196;28;20182;-46
2022/03/08 08:50:08;;;;;;;4.45;3.38;;;19.80;59.20;;;;;;7838038;28;20209;-46
2022/03/08 08:53:54;;;;;;;9.45;3.10;;;19.80;59.20;;;;;;7838177;28;20194;-45
2022/03/08 08:57:40;;;;;;;6.18;3.28;;;19.80;59.30;;;;;;7838030;28;20178;-46
2022/03/08 09:01:25;;;;;;;8.80;3.40;;;19.80;59.10;;;;;;7837104;28;20275;-45
2022/03/08 09:05:12;;;;;;;8.07;3.38;;;19.90;59.20;;;;;;7838120;28;20668;-45
2022/03/08 09:08:57;;;;;;;7.47;3.38;;;19.80;59.10;;;;;;7838012;28;20212;-45
2022/03/08 09:12:43;;;;;;;11.60;3.78;;;19.90;59.30;;;;;;7837574;28;20225;-44
2022/03/08 09:16:29;;;;;;;7.13;3.25;;;19.90;59.20;;;;;;7837926;28;20607;-45
2022/03/08 09:20:14;;;;;;;9.52;2.95;;;19.90;59.20;;;;;;7837628;28;20178;-45
2022/03/08 09:24:00;;;;;;;6.40;2.85;;;19.90;59.30;;;;;;7834975;28;20202;-45
2022/03/08 09:27:45;;;;;;;8.10;3.15;;;19.90;59.30;;;;;;7837919;28;20182;-46
2022/03/08 09:31:31;;;;;;;6.43;3.10;;;19.90;59.20;;;;;;7837360;28;20214;-45
2022/03/08 09:35:16;;;;;;;5.32;2.95;;;19.90;59.30;;;;;;7837603;28;20181;-45
2022/03/08 09:39:03;;;;;;;4.95;2.72;;;20.00;59.20;;;;;;7836320;28;20182;-45
2022/03/08 09:42:49;;;;;;;4.40;2.72;;;20.00;59.20;;;;;;7837282;28;20202;-45
2022/03/08 09:46:35;;;;;;;7.78;2.75;;;20.00;59.40;;;;;;7859329;28;20716;-47
2022/03/08 09:50:21;;;;;;;4.90;3.15;;;20.00;59.70;;;;;;7868087;28;20575;-46
2022/03/08 09:54:06;;;;;;;4.97;2.88;;;20.00;59.40;;;;;;7868367;28;20216;-47
2022/03/08 09:57:55;;;;;;;5.30;2.92;;;20.00;59.20;;;;;;7868295;28;20185;-47
2022/03/08 10:01:41;;;;;;;9.90;2.92;;;20.10;59.20;;;;;;7865312;28;20695;-47
2022/03/08 10:05:39;;;;;;;9.73;3.53;;;20.10;59.00;;;;;;7839190;28;20686;-45
2022/03/08 10:09:25;;;;;;;6.68;2.45;;;20.10;58.90;;;;;;7836604;28;20223;-45
2022/03/08 10:13:12;;;;;;;5.80;2.60;;;20.10;58.60;;;;;;7837041;28;20190;-46
2022/03/08 10:16:58;;;;;;;10.18;3.38;;;20.10;58.50;;;;;;7842717;28;20185;-47
2022/03/08 10:20:43;;;;;;;6.85;2.97;;;20.10;59.00;;;;;;7842195;28;20204;-46
2022/03/08 10:24:31;;;;;;;7.55;3.40;;;20.10;58.80;;;;;;7838316;28;20289;-46
2022/03/08 10:28:16;;;;;;;6.95;2.40;;;20.10;58.60;;;;;;7864442;28;20189;-47
2022/03/08 10:32:16;;;;;;;10.52;2.85;;;20.10;58.60;;;;;;7872813;28;20274;-46
2022/03/08 10:36:02;;;;;;;5.65;2.33;;;20.10;58.60;;;;;;7847487;28;20685;-46
2022/03/08 10:39:50;;;;;;;9.52;2.58;;;20.10;58.50;;;;;;7865334;28;20526;-47
2022/03/08 10:43:48;;;;;;;5.80;2.28;;;20.10;58.40;;;;;;7872856;28;20254;-46
2022/03/08 10:47:51;;;;;;;6.35;2.53;;;20.20;58.70;;;;;;7872721;28;20691;-45
2022/03/08 10:51:37;;;;;;;16.80;2.45;;;20.10;58.80;;;;;;7865496;28;20253;-46
2022/03/08 10:55:31;;;;;;;6.00;2.53;;;20.10;58.90;;;;;;7841502;28;20228;-47
2022/03/08 10:59:18;;;;;;;8.23;2.35;;;20.20;58.90;;;;;;7841129;28;20206;-46
2022/03/08 11:03:09;;;;;;;5.43;2.08;;;20.10;58.80;;;;;;7841163;28;20205;-47
2022/03/08 11:06:57;;;;;;;8.48;2.55;;;20.10;58.70;;;;;;7841458;28;20174;-44
2022/03/08 11:10:44;;;;;;;5.25;2.10;;;20.10;58.80;;;;;;7841026;28;20205;-46
2022/03/08 11:14:30;;;;;;;15.25;2.70;;;20.20;59.30;;;;;;7840908;28;20204;-47
2022/03/08 11:18:16;;;;;;;11.95;2.30;;;20.20;59.60;;;;;;7841032;28;20178;-46
2022/03/08 11:22:02;;;;;;;5.70;2.03;;;20.20;59.00;;;;;;7840479;28;20729;-46
2022/03/08 11:25:47;;;;;;;9.90;2.15;;;20.20;58.80;;;;;;7837412;28;20528;-46
2022/03/08 11:29:33;;;;;;;7.45;2.22;;;20.20;58.40;;;;;;7840000;28;20202;-46
2022/03/08 11:33:55;;;;;;;4.20;2.03;;;20.10;58.10;;;;;;7840361;28;20202;-46
2022/03/08 11:37:44;;;;;;;9.90;2.00;;;20.10;58.50;;;;;;7839874;28;20654;-45
2022/03/08 11:41:30;;;;;;;6.97;2.30;;;20.20;58.60;;;;;;7839890;28;20216;-46
2022/03/08 11:45:27;;;;;;;2.92;1.80;;;20.20;59.60;;;;;;7839960;28;20185;-46
2022/03/08 11:49:12;;;;;;;6.60;1.92;;;20.10;58.40;;;;;;7839625;28;20225;-46
2022/03/08 11:53:07;;;;;;;6.63;2.05;;;20.10;58.30;;;;;;7839565;28;20194;-46
2022/03/08 11:56:54;;;;;;;8.00;1.92;;;20.10;58.00;;;;;;7839540;28;20178;-46
2022/03/08 12:00:55;;;;;;;5.45;2.38;;;20.10;57.90;;;;;;7839123;28;20186;-46
2022/03/08 12:04:45;;;;;;;16.65;2.60;;;20.10;58.90;;;;;;7839126;28;20201;-46
2022/03/08 12:08:30;;;;;;;6.97;2.25;;;20.20;59.00;;;;;;7839263;28;20174;-46
2022/03/08 12:12:23;;;;;;;11.00;2.28;;;20.10;58.90;;;;;;7838784;28;20244;-50
2022/03/08 12:16:09;;;;;;;7.25;1.75;;;20.10;58.80;;;;;;7838119;28;20261;-47
2022/03/08 12:19:57;;;;;;;6.38;2.47;;;20.10;59.20;;;;;;7838490;28;20182;-46
2022/03/08 12:23:49;;;;;;;6.40;2.22;;;20.20;60.00;;;;;;7839176;28;20190;-46
2022/03/08 12:27:49;;;;;;;8.88;1.88;;;20.20;60.50;;;;;;7839184;28;20276;-45
2022/03/08 12:32:05;;;;;;;8.50;2.25;;;20.20;59.50;;;;;;7837574;28;20675;-45
2022/03/08 12:35:52;;;;;;;2.53;1.50;;;20.20;59.20;;;;;;7838665;28;20174;-46
2022/03/08 12:40:01;;;;;;;6.10;1.75;;;20.20;59.10;;;;;;7855401;28;20182;-49
2022/03/08 12:43:57;;;;;;;6.20;1.80;;;20.20;59.00;;;;;;7858073;28;20212;-45
2022/03/08 12:48:10;;;;;;;7.30;1.90;;;20.20;59.20;;;;;;7855790;28;20188;-44
2022/03/08 12:51:56;;;;;;;3.42;1.73;;;20.20;59.40;;;;;;7835675;28;20229;-47
2022/03/08 12:55:44;;;;;;;6.40;1.60;;;20.20;59.10;;;;;;7847619;28;20197;-45
2022/03/08 12:59:30;;;;;;;8.38;2.17;;;20.20;59.00;;;;;;7837638;28;20579;-45
2022/03/08 13:03:17;;;;;;;5.15;1.75;;;20.20;59.30;;;;;;7837664;28;20225;-46
2022/03/08 13:07:18;;;;;;;2.33;1.50;;;20.30;59.50;;;;;;7837889;28;20208;-46
2022/03/08 13:11:06;;;;;;;3.92;1.77;;;20.30;59.30;;;;;;7837574;28;20236;-45
2022/03/08 13:15:10;;;;;;;3.70;1.70;;;20.20;59.50;;;;;;7838412;28;20255;-46
2022/03/08 13:19:00;;;;;;;4.32;1.98;;;20.30;59.40;;;;;;7837865;28;20174;-45
2022/03/08 13:22:46;;;;;;;6.15;2.13;;;20.30;59.10;;;;;;7837304;28;20602;-45
2022/03/08 13:26:49;;;;;;;6.05;1.60;;;20.30;60.00;;;;;;7834761;28;20260;-45
2022/03/08 13:30:40;;;;;;;3.97;1.50;;;20.30;61.80;;;;;;7837226;28;20691;-46
2022/03/08 13:34:26;;;;;;;2.88;1.27;;;20.30;61.80;;;;;;7849612;28;20205;-45
2022/03/08 13:38:14;;;;;;;3.92;1.50;;;20.30;62.40;;;;;;7868476;28;20256;-45
2022/03/08 13:42:00;;;;;;;4.07;1.50;;;20.30;61.30;;;;;;7845853;28;20290;-45
2022/03/08 13:45:46;;;;;;;2.05;1.30;;;20.30;62.20;;;;;;7836785;28;20205;-45
2022/03/08 13:49:32;;;;;;;5.35;1.85;;;20.30;62.30;;;;;;7841285;28;20202;-45
2022/03/08 13:53:18;;;;;;;3.22;1.30;;;20.30;62.00;;;;;;7843164;28;20190;-45
2022/03/08 13:57:04;;;;;;;5.45;1.60;;;20.30;61.50;;;;;;7843063;28;20253;-45
2022/03/08 14:00:51;;;;;;;2.22;1.20;;;20.30;62.40;;;;;;7842737;28;20178;-44
2022/03/08 14:04:37;;;;;;;2.30;1.40;;;20.30;62.10;;;;;;7843145;28;20194;-45
2022/03/08 14:08:28;;;;;;;1.90;1.20;;;20.30;61.90;;;;;;7843367;28;20182;-46
2022/03/08 14:12:14;;;;;;;4.10;1.52;;;20.30;62.20;;;;;;7842382;28;20563;-46
2022/03/08 14:16:06;;;;;;;3.83;1.75;;;20.30;62.40;;;;;;7842991;28;20332;-45
2022/03/08 14:19:53;;;;;;;3.20;1.40;;;20.30;62.40;;;;;;7842662;28;20174;-45
2022/03/08 14:23:42;;;;;;;3.10;1.17;;;20.30;62.30;;;;;;7842599;28;20293;-46
2022/03/08 14:27:27;;;;;;;4.10;1.45;;;20.30;61.70;;;;;;7842711;28;20543;-45
2022/03/08 14:31:21;;;;;;;2.00;1.20;;;20.30;61.60;;;;;;7842452;28;20225;-45
2022/03/08 14:35:11;;;;;;;6.45;1.30;;;20.30;62.80;;;;;;7851849;28;20602;-45
2022/03/08 14:39:12;;;;;;;4.38;1.30;;;20.30;62.50;;;;;;7873315;28;20244;-47
2022/03/08 14:43:02;;;;;;;2.50;1.58;;;20.30;62.30;;;;;;7873088;28;20197;-47
2022/03/08 14:46:48;;;;;;;4.13;1.60;;;20.20;61.90;;;;;;7869290;28;20181;-47
2022/03/08 14:50:34;;;;;;;3.17;1.67;;;20.30;62.20;;;;;;7841551;28;20208;-46
2022/03/08 14:54:20;;;;;;;2.55;1.30;;;20.20;63.00;;;;;;7841762;28;20189;-45
2022/03/08 14:58:05;;;;;;;6.65;1.95;;;20.20;62.00;;;;;;7841587;28;20224;-47
2022/03/08 15:01:50;;;;;;;12.60;1.55;;;20.20;61.70;;;;;;7840740;28;20251;-46
2022/03/08 15:05:38;;;;;;;8.38;1.98;;;20.20;61.80;;;;;;7841397;28;20184;-45
2022/03/08 15:09:25;;;;;;;2.78;1.88;;;20.10;59.40;;;;;;7840977;28;20238;-47
2022/03/08 15:13:10;;;;;;;3.55;1.75;;;20.10;59.60;;;;;;7841127;28;20263;-45
2022/03/08 15:16:56;;;;;;;3.35;1.65;;;20.10;59.80;;;;;;7841061;28;20178;-46
2022/03/08 15:20:42;;;;;;;5.97;2.08;;;20.10;59.30;;;;;;7840660;28;20170;-45
2022/03/08 15:24:27;;;;;;;4.47;1.77;;;20.00;59.00;;;;;;7840781;28;20213;-46
2022/03/08 15:28:13;;;;;;;3.67;1.90;;;20.00;59.00;;;;;;7840727;28;20201;-45
2022/03/08 15:31:58;;;;;;;4.13;2.03;;;19.90;59.00;;;;;;7840199;28;20205;-46
2022/03/08 15:35:44;;;;;;;3.00;1.75;;;19.90;59.00;;;;;;7840539;28;20281;-46
2022/03/08 15:39:30;;;;;;;5.13;1.48;;;19.90;58.80;;;;;;7840098;28;20265;-45
2022/03/08 15:43:15;;;;;;;3.10;1.73;;;19.90;58.70;;;;;;7840246;28;20198;-46
2022/03/08 15:47:02;;;;;;;3.17;1.65;;;19.90;58.70;;;;;;7840155;28;20186;-46
2022/03/08 15:50:47;;;;;;;3.40;1.70;;;19.80;58.70;;;;;;7839757;28;20209;-46
2022/03/08 15:54:33;;;;;;;3.30;2.10;;;19.80;58.70;;;;;;7839940;28;20205;-46
2022/03/08 15:58:19;;;;;;;3.65;2.00;;;19.80;58.70;;;;;;7840058;28;20177;-47
2022/03/08 16:02:06;;;;;;;5.63;2.10;;;19.80;58.60;;;;;;7839340;28;20226;-47
2022/03/08 16:05:52;;;;;;;4.95;2.30;;;19.80;59.30;;;;;;7839719;28;20269;-47
2022/03/08 16:09:38;;;;;;;7.38;2.03;;;19.70;58.60;;;;;;7839128;28;20216;-45
2022/03/08 16:13:23;;;;;;;4.78;2.05;;;19.70;58.70;;;;;;7838427;28;20225;-48
2022/03/08 16:17:09;;;;;;;7.15;2.25;;;19.70;58.70;;;;;;7839272;28;20202;-47
2022/03/08 16:20:54;;;;;;;6.35;2.42;;;19.60;58.70;;;;;;7838874;28;20189;-46
2022/03/08 16:24:41;;;;;;;6.50;2.15;;;19.60;58.70;;;;;;7839445;28;20515;-47
2022/03/08 16:28:26;;;;;;;8.50;2.08;;;19.60;58.80;;;;;;7839393;28;20316;-45
2022/03/08 16:32:12;;;;;;;4.60;2.30;;;19.60;58.80;;;;;;7838933;28;20210;-47
2022/03/08 16:35:59;;;;;;;6.28;2.20;;;19.60;58.90;;;;;;7839079;28;20636;-48
2022/03/08 16:39:45;;;;;;;4.53;2.05;;;19.50;58.90;;;;;;7838718;28;20257;-46
2022/03/08 16:43:30;;;;;;;9.15;3.08;;;19.50;59.00;;;;;;7838777;28;20683;-46
2022/03/08 16:47:16;;;;;;;4.22;2.63;;;19.50;59.20;;;;;;7858491;28;20654;-46
2022/03/08 16:51:01;;;;;;;7.15;2.33;;;19.50;59.30;;;;;;7870840;28;20624;-45
2022/03/08 16:54:47;;;;;;;9.00;2.83;;;19.40;59.00;;;;;;7869539;28;20260;-45
2022/03/08 16:58:32;;;;;;;4.35;2.55;;;19.50;58.90;;;;;;7869560;28;20173;-46
2022/03/08 17:02:18;;;;;;;8.57;3.38;;;19.40;58.80;;;;;;7863879;28;20591;-45
2022/03/08 17:06:04;;;;;;;9.27;3.08;;;19.40;59.00;;;;;;7838150;28;20209;-45
2022/03/08 17:09:49;;;;;;;9.50;3.13;;;19.40;59.80;;;;;;7837865;28;20225;-46
2022/03/08 17:13:35;;;;;;;11.93;2.88;;;19.30;59.10;;;;;;7837698;28;20205;-45
2022/03/08 17:17:20;;;;;;;15.23;3.60;;;19.30;60.00;;;;;;7837892;28;20256;-46
2022/03/08 17:21:07;;;;;;;9.23;3.70;;;19.40;59.60;;;;;;7837447;28;20178;-45
2022/03/08 17:24:53;;;;;;;18.25;3.78;;;19.30;59.30;;;;;;7842697;28;20170;-46
2022/03/08 17:28:39;;;;;;;7.22;3.50;;;19.30;59.10;;;;;;7850423;28;20177;-45
2022/03/08 17:32:25;;;;;;;10.50;4.22;;;19.30;59.20;;;;;;7856302;28;20243;-45
2022/03/08 17:36:11;;;;;;;13.45;3.78;;;19.30;59.70;;;;;;7843857;28;20204;-45
2022/03/08 17:39:56;;;;;;;10.43;3.75;;;19.30;60.60;;;;;;7843504;28;20170;-45
2022/03/08 17:43:42;;;;;;;8.85;3.75;;;19.30;61.40;;;;;;7843401;28;20206;-45
2022/03/08 17:47:27;;;;;;;13.00;4.13;;;19.40;61.30;;;;;;7843561;28;20644;-45
2022/03/08 17:51:13;;;;;;;14.32;4.07;;;19.50;63.20;;;;;;7846180;28;20209;-46
2022/03/08 17:54:59;;;;;;;8.60;3.47;;;19.60;62.50;;;;;;7874349;28;20663;-45
2022/03/08 17:58:45;;;;;;;10.93;3.97;;;19.60;62.90;;;;;;7874383;28;20173;-45
2022/03/08 18:02:30;;;;;;;16.60;4.00;;;19.70;62.40;;;;;;7849047;28;20221;-45
2022/03/08 18:06:16;;;;;;;12.70;4.35;;;19.80;62.70;;;;;;7842863;28;20725;-47
2022/03/08 18:10:03;;;;;;;8.13;3.17;;;19.90;62.70;;;;;;7842643;28;20678;-45
2022/03/08 18:13:48;;;;;;;12.00;4.05;;;19.90;62.50;;;;;;7842573;28;20221;-47
2022/03/08 18:17:34;;;;;;;11.93;3.60;;;20.00;62.00;;;;;;7842839;28;20178;-46
2022/03/08 18:21:20;;;;;;;11.27;4.07;;;20.00;62.20;;;;;;7848477;28;20204;-47
2022/03/08 18:25:06;;;;;;;17.17;3.83;;;20.00;62.20;;;;;;7861325;28;20741;-47
2022/03/08 18:28:51;;;;;;;8.85;3.78;;;20.10;62.20;;;;;;7842118;28;20219;-47
2022/03/08 18:32:37;;;;;;;14.82;3.65;;;20.20;62.30;;;;;;7846434;28;20222;-47
2022/03/08 18:36:22;;;;;;;12.05;3.80;;;20.20;62.40;;;;;;7866903;28;20201;-47
2022/03/08 18:40:09;;;;;;;14.82;3.97;;;20.30;62.40;;;;;;7872972;28;20213;-46
2022/03/08 18:43:55;;;;;;;13.93;4.18;;;20.30;62.30;;;;;;7873073;28;20258;-48
2022/03/08 18:47:41;;;;;;;11.85;3.40;;;20.30;62.20;;;;;;7873143;28;20185;-47
2022/03/08 18:51:26;;;;;;;17.73;3.97;;;20.40;62.20;;;;;;7850754;28;20210;-45
2022/03/08 18:55:13;;;;;;;15.43;3.75;;;20.50;62.00;;;;;;7857189;28;20235;-45
2022/03/08 18:58:58;;;;;;;11.85;3.72;;;20.60;62.00;;;;;;7872605;28;20260;-46
2022/03/08 19:02:44;;;;;;;11.82;3.30;;;20.70;62.10;;;;;;7871927;28;20217;-46
2022/03/08 19:06:30;;;;;;;9.93;4.10;;;20.80;62.20;;;;;;7846920;28;20640;-45
2022/03/08 19:10:17;;;;;;;18.30;4.07;;;20.90;61.70;;;;;;7840895;28;20202;-45
2022/03/08 19:14:03;;;;;;;23.98;3.90;;;21.00;61.70;;;;;;7840255;28;20198;-45
2022/03/08 19:17:48;;;;;;;16.83;3.88;;;21.10;61.80;;;;;;7841040;28;20181;-45
2022/03/08 19:21:33;;;;;;;12.88;4.00;;;21.20;61.60;;;;;;7840567;28;20204;-46
2022/03/08 19:25:19;;;;;;;7.22;3.42;;;21.30;60.80;;;;;;7840809;28;20231;-45
2022/03/08 19:29:05;;;;;;;9.88;3.97;;;21.30;61.10;;;;;;7840609;28;20170;-45
2022/03/08 19:32:50;;;;;;;8.15;3.53;;;21.40;61.20;;;;;;7840167;28;20233;-45
2022/03/08 19:36:37;;;;;;;8.80;3.38;;;21.40;60.80;;;;;;7840478;28;20710;-45
2022/03/08 19:40:22;;;;;;;6.40;3.15;;;21.50;59.90;;;;;;7840351;28;20190;-45